Time;durP1;ratioP1;P1;durP2;ratioP2;P2;SDS_P1;SDS_P2;PMS_P1;PMS_P2;Temp;Humidity;BMP_temperature;BMP_pressure;BME280_temperature;BME280_humidity;BME280_pressure;Samples;Min_cycle;Max_cycle;Signal;HPM_P1;HPM_P2
2022/03/18 00:02:23;;;;;;;2.30;1.80;;;16.10;57.50;;;;;;5072488;28;20225;-14
2022/03/18 00:04:50;;;;;;;1.93;1.47;;;16.10;57.50;;;;;;5070521;28;20199;-16
2022/03/18 00:07:17;;;;;;;2.83;1.60;;;16.00;57.50;;;;;;5070795;28;20180;-14
2022/03/18 00:09:43;;;;;;;3.07;1.60;;;16.00;57.50;;;;;;5085422;28;20611;-19
2022/03/18 00:12:12;;;;;;;1.83;1.50;;;16.00;57.50;;;;;;5070921;28;20194;-16
2022/03/18 00:14:41;;;;;;;2.10;1.77;;;16.00;57.40;;;;;;5070761;28;20199;-17
2022/03/18 00:17:08;;;;;;;2.40;1.60;;;16.00;57.40;;;;;;5088902;28;20245;-16
2022/03/18 00:19:35;;;;;;;2.13;1.50;;;16.00;57.50;;;;;;5090543;28;20429;-16
2022/03/18 00:22:01;;;;;;;3.07;1.60;;;16.00;57.40;;;;;;5089693;28;20200;-19
2022/03/18 00:24:28;;;;;;;2.10;1.50;;;15.90;57.40;;;;;;5087048;28;20503;-14
2022/03/18 00:26:54;;;;;;;1.60;1.50;;;16.00;57.40;;;;;;5069664;28;20182;-16
2022/03/18 00:29:20;;;;;;;1.87;1.67;;;15.90;57.30;;;;;;5092178;28;20171;-16
2022/03/18 00:31:46;;;;;;;2.53;1.67;;;15.90;57.70;;;;;;5077190;28;20212;-18
2022/03/18 00:34:11;;;;;;;1.70;1.50;;;15.90;57.30;;;;;;5095010;28;20211;-14
2022/03/18 00:36:37;;;;;;;1.67;1.50;;;15.90;57.30;;;;;;5077132;28;20179;-16
2022/03/18 00:39:03;;;;;;;2.30;1.50;;;15.90;57.20;;;;;;5091591;28;20234;-19
2022/03/18 00:41:30;;;;;;;2.57;1.40;;;15.90;57.20;;;;;;5090645;28;20438;-16
2022/03/18 00:43:56;;;;;;;1.73;1.50;;;15.90;57.20;;;;;;5095772;28;20466;-14
2022/03/18 00:46:23;;;;;;;1.93;1.50;;;15.90;57.20;;;;;;5092709;28;20210;-19
2022/03/18 00:54:18;;;;;;;2.43;1.70;;;15.80;57.10;;;;;;5093122;28;20182;-14
2022/03/18 00:56:43;;;;;;;3.43;1.80;;;15.80;57.10;;;;;;5074203;28;20179;-14
2022/03/18 00:59:10;;;;;;;2.10;1.50;;;15.80;57.00;;;;;;5094817;28;20182;-16
2022/03/18 01:01:35;;;;;;;2.20;1.60;;;15.80;57.00;;;;;;5095111;28;20551;-18
2022/03/18 01:04:02;;;;;;;1.90;1.50;;;15.80;57.00;;;;;;5076700;28;20183;-17
2022/03/18 01:06:28;;;;;;;1.97;1.63;;;15.80;57.00;;;;;;5095610;28;20174;-14
2022/03/18 01:08:54;;;;;;;2.20;1.50;;;15.80;57.00;;;;;;5095658;28;20184;-15
2022/03/18 01:11:20;;;;;;;2.50;1.77;;;15.80;57.00;;;;;;5094665;28;20191;-14
2022/03/18 01:13:46;;;;;;;2.20;1.70;;;15.80;57.00;;;;;;5078110;28;20277;-16
2022/03/18 01:16:11;;;;;;;1.90;1.50;;;15.70;57.00;;;;;;5095322;28;20268;-16
2022/03/18 01:18:37;;;;;;;2.07;1.50;;;15.70;57.00;;;;;;5093729;28;20215;-17
2022/03/18 01:21:03;;;;;;;2.43;1.60;;;15.70;56.90;;;;;;5077180;28;20176;-14
2022/03/18 01:23:29;;;;;;;1.50;1.40;;;15.70;56.90;;;;;;5095989;28;20171;-15
2022/03/18 01:25:55;;;;;;;2.30;1.80;;;15.70;56.90;;;;;;5076856;28;20305;-18
2022/03/18 01:28:23;;;;;;;1.77;1.50;;;15.70;56.90;;;;;;5077273;28;20189;-14
2022/03/18 01:30:49;;;;;;;1.97;1.50;;;15.70;56.90;;;;;;5094528;28;20190;-15
2022/03/18 01:33:15;;;;;;;1.50;1.40;;;15.70;56.90;;;;;;5077593;28;20331;-14
2022/03/18 01:35:41;;;;;;;1.90;1.40;;;15.70;56.90;;;;;;5076472;28;20571;-16
2022/03/18 01:38:06;;;;;;;3.10;1.50;;;15.70;56.90;;;;;;5077192;28;20213;-14
2022/03/18 01:40:32;;;;;;;2.57;1.30;;;15.70;56.80;;;;;;5077565;28;20168;-14
2022/03/18 01:42:58;;;;;;;1.70;1.50;;;15.60;56.80;;;;;;5096597;28;20164;-14
2022/03/18 01:45:25;;;;;;;1.60;1.47;;;15.60;56.80;;;;;;5095293;28;20212;-16
2022/03/18 01:47:51;;;;;;;1.57;1.47;;;15.60;56.70;;;;;;5095586;28;20684;-17
2022/03/18 01:50:16;;;;;;;2.13;1.50;;;15.60;56.80;;;;;;5094725;28;20170;-19
2022/03/18 01:52:44;;;;;;;2.00;1.73;;;15.60;56.80;;;;;;5077010;28;20186;-14
2022/03/18 01:55:10;;;;;;;1.70;1.60;;;15.60;56.80;;;;;;5094916;28;20664;-16
2022/03/18 01:57:36;;;;;;;2.07;1.43;;;15.60;56.70;;;;;;5075455;28;20451;-16
2022/03/18 02:00:05;;;;;;;1.77;1.37;;;15.60;56.70;;;;;;5093604;28;20181;-18
2022/03/18 02:02:31;;;;;;;2.43;1.60;;;15.60;56.70;;;;;;5082887;28;20180;-15
2022/03/18 02:04:57;;;;;;;2.00;1.60;;;15.50;56.60;;;;;;5076705;28;20202;-14
2022/03/18 02:07:26;;;;;;;2.20;1.63;;;15.50;56.60;;;;;;5075983;28;20174;-18
2022/03/18 02:09:52;;;;;;;1.90;1.67;;;15.50;56.60;;;;;;5076198;28;20210;-16
2022/03/18 02:12:17;;;;;;;2.47;1.50;;;15.50;56.60;;;;;;5095290;28;20640;-17
2022/03/18 02:14:46;;;;;;;2.33;1.70;;;15.50;56.60;;;;;;5077736;28;20170;-20
2022/03/18 02:17:13;;;;;;;1.70;1.57;;;15.50;56.50;;;;;;5076285;28;20217;-18
2022/03/18 02:19:41;;;;;;;1.63;1.37;;;15.50;56.50;;;;;;5092890;28;20174;-20
2022/03/18 02:22:11;;;;;;;1.57;1.47;;;15.50;56.50;;;;;;5093614;28;20163;-14
2022/03/18 02:24:42;;;;;;;2.00;1.30;;;15.50;56.50;;;;;;5094245;28;20187;-19
2022/03/18 02:27:08;;;;;;;1.80;1.40;;;15.40;56.50;;;;;;5094702;28;20215;-16
2022/03/18 02:29:34;;;;;;;1.80;1.60;;;15.40;56.40;;;;;;5095027;28;20189;-17
2022/03/18 02:32:01;;;;;;;1.93;1.70;;;15.40;56.40;;;;;;5056409;28;20167;-14
2022/03/18 02:34:28;;;;;;;2.20;1.67;;;15.40;56.40;;;;;;5065427;28;20179;-14
2022/03/18 02:36:54;;;;;;;2.30;1.70;;;15.40;56.40;;;;;;5093389;28;20178;-14
2022/03/18 02:39:20;;;;;;;2.27;1.40;;;15.40;56.40;;;;;;5075152;28;20482;-16
2022/03/18 02:41:45;;;;;;;2.70;1.40;;;15.40;56.40;;;;;;5093405;28;20555;-17
2022/03/18 02:44:11;;;;;;;1.70;1.60;;;15.40;56.30;;;;;;5093184;28;20171;-20
2022/03/18 02:46:37;;;;;;;1.87;1.67;;;15.40;56.40;;;;;;5091126;28;20581;-18
2022/03/18 02:49:04;;;;;;;2.27;1.60;;;15.30;56.30;;;;;;5075799;28;20249;-15
2022/03/18 02:51:30;;;;;;;1.83;1.63;;;15.30;56.30;;;;;;5094820;28;20265;-15
2022/03/18 02:53:57;;;;;;;1.60;1.50;;;15.30;56.30;;;;;;5076711;28;20456;-19
2022/03/18 02:56:23;;;;;;;2.00;1.37;;;15.30;56.20;;;;;;5077533;28;20175;-14
2022/03/18 02:58:49;;;;;;;1.87;1.40;;;15.30;56.20;;;;;;5094146;28;20209;-17
2022/03/18 03:01:15;;;;;;;1.90;1.70;;;15.30;56.20;;;;;;5094943;28;20586;-15
2022/03/18 03:03:40;;;;;;;1.83;1.50;;;15.30;56.20;;;;;;5093985;28;20187;-16
2022/03/18 03:08:50;;;;;;;1.80;1.40;;;15.30;56.20;;;;;;5093261;28;20174;-19
2022/03/18 03:11:16;;;;;;;1.50;1.40;;;15.30;56.10;;;;;;5093564;28;20186;-17
2022/03/18 03:13:42;;;;;;;1.63;1.40;;;15.30;56.10;;;;;;5077160;28;20331;-15
2022/03/18 03:16:08;;;;;;;1.50;1.40;;;15.20;56.10;;;;;;5077396;28;20280;-16
2022/03/18 03:18:35;;;;;;;2.67;1.70;;;15.20;56.00;;;;;;5095537;28;20296;-17
2022/03/18 03:21:01;;;;;;;1.63;1.43;;;15.20;56.00;;;;;;5077125;28;20171;-17
2022/03/18 03:23:26;;;;;;;1.77;1.67;;;15.20;56.00;;;;;;5079234;28;20196;-17
2022/03/18 03:25:53;;;;;;;1.80;1.50;;;15.20;56.00;;;;;;5098638;28;20163;-18
2022/03/18 03:28:20;;;;;;;1.63;1.30;;;15.20;55.90;;;;;;5079842;28;20185;-14
2022/03/18 03:30:46;;;;;;;1.80;1.40;;;15.20;56.00;;;;;;5096320;28;20179;-18
2022/03/18 03:33:12;;;;;;;1.80;1.47;;;15.20;55.90;;;;;;5078636;28;20214;-16
2022/03/18 03:35:38;;;;;;;1.73;1.53;;;15.20;55.90;;;;;;5098839;28;20171;-15
2022/03/18 03:38:06;;;;;;;2.20;1.50;;;15.10;55.80;;;;;;5081362;28;20280;-17
2022/03/18 03:40:33;;;;;;;2.87;1.80;;;15.10;55.90;;;;;;5098648;28;20171;-17
2022/03/18 03:42:59;;;;;;;1.40;1.30;;;15.10;55.80;;;;;;5098188;28;20167;-16
2022/03/18 03:45:25;;;;;;;1.50;1.40;;;15.10;55.80;;;;;;5097750;28;20190;-16
2022/03/18 03:47:51;;;;;;;1.90;1.40;;;15.10;55.80;;;;;;5089185;28;20196;-17
2022/03/18 03:50:17;;;;;;;2.13;1.53;;;15.10;56.10;;;;;;5085713;28;20234;-16
2022/03/18 03:52:44;;;;;;;1.70;1.60;;;15.10;55.70;;;;;;5087083;28;20436;-14
2022/03/18 03:55:12;;;;;;;1.67;1.40;;;15.10;55.70;;;;;;5077731;28;20303;-14
2022/03/18 03:57:38;;;;;;;2.30;1.60;;;15.10;55.70;;;;;;5080571;28;20305;-16
2022/03/18 04:00:09;;;;;;;1.43;1.30;;;15.10;55.70;;;;;;5079949;28;20268;-15
2022/03/18 04:02:37;;;;;;;1.67;1.40;;;15.00;55.70;;;;;;5096964;28;20178;-19
2022/03/18 04:05:07;;;;;;;2.03;1.63;;;15.00;55.70;;;;;;5079901;28;20185;-15
2022/03/18 04:07:39;;;;;;;1.73;1.53;;;15.00;55.70;;;;;;5096899;28;20203;-16
2022/03/18 04:10:07;;;;;;;2.20;1.40;;;15.00;55.60;;;;;;5078510;28;20177;-15
2022/03/18 04:12:33;;;;;;;1.80;1.23;;;15.00;55.60;;;;;;5095561;28;20189;-16
2022/03/18 04:15:08;;;;;;;2.30;1.57;;;15.00;55.60;;;;;;5095251;28;20559;-14
2022/03/18 04:17:52;;;;;;;2.20;1.50;;;15.00;55.60;;;;;;5075989;28;20215;-13
2022/03/18 04:20:21;;;;;;;3.13;1.67;;;14.90;55.50;;;;;;5077635;28;20189;-13
2022/03/18 04:22:48;;;;;;;1.63;1.40;;;14.90;55.60;;;;;;5062536;28;20272;-16
2022/03/18 04:25:14;;;;;;;2.20;1.57;;;15.00;55.60;;;;;;5096138;28;20174;-15
2022/03/18 04:27:40;;;;;;;1.63;1.30;;;14.90;55.90;;;;;;5096252;28;20240;-15
2022/03/18 04:30:08;;;;;;;1.97;1.60;;;14.90;55.50;;;;;;5075889;28;20191;-16
2022/03/18 04:32:34;;;;;;;2.23;1.70;;;14.90;55.50;;;;;;5076149;28;20168;-16
2022/03/18 04:35:00;;;;;;;2.00;1.60;;;14.90;55.40;;;;;;5088517;28;20179;-16
2022/03/18 04:37:26;;;;;;;1.63;1.43;;;14.90;55.40;;;;;;5086771;28;20204;-15
2022/03/18 04:39:52;;;;;;;2.13;1.50;;;14.90;55.40;;;;;;5075702;28;20220;-17
2022/03/18 04:42:18;;;;;;;2.00;1.67;;;14.90;55.40;;;;;;5066436;28;20533;-16
2022/03/18 04:44:44;;;;;;;1.97;1.47;;;14.80;55.30;;;;;;5096961;28;20179;-15
2022/03/18 04:47:10;;;;;;;2.63;1.60;;;14.80;55.70;;;;;;5095613;28;20185;-14
2022/03/18 04:49:36;;;;;;;2.40;1.50;;;14.80;55.30;;;;;;5096069;28;20202;-17
2022/03/18 04:52:02;;;;;;;2.00;1.70;;;14.80;55.30;;;;;;5096070;28;20237;-17
2022/03/18 04:54:28;;;;;;;2.40;1.60;;;14.80;55.30;;;;;;5093775;28;20518;-17
2022/03/18 04:59:40;;;;;;;1.80;1.50;;;14.80;55.30;;;;;;5075154;28;20228;-16
2022/03/18 05:02:06;;;;;;;3.10;1.80;;;14.80;55.30;;;;;;5074595;28;20310;-18
2022/03/18 05:04:31;;;;;;;1.43;1.33;;;14.80;55.20;;;;;;5069577;28;20209;-17
2022/03/18 05:06:57;;;;;;;2.27;1.50;;;14.70;55.20;;;;;;5094220;28;20243;-18
2022/03/18 05:09:25;;;;;;;2.60;1.73;;;14.70;55.20;;;;;;5095187;28;20542;-18
2022/03/18 05:11:51;;;;;;;1.90;1.60;;;14.70;55.20;;;;;;5094365;28;20181;-18
2022/03/18 05:14:16;;;;;;;2.23;1.60;;;14.70;55.20;;;;;;5094960;28;20513;-16
2022/03/18 05:16:42;;;;;;;1.57;1.47;;;14.70;55.20;;;;;;5056007;28;20175;-15
2022/03/18 05:19:11;;;;;;;1.57;1.40;;;14.70;55.20;;;;;;5056316;28;20180;-14
2022/03/18 05:21:38;;;;;;;1.63;1.50;;;14.70;55.20;;;;;;5068124;28;20178;-14
2022/03/18 05:24:04;;;;;;;1.90;1.53;;;14.70;55.20;;;;;;5094036;28;20182;-15
2022/03/18 05:26:30;;;;;;;2.40;1.50;;;14.60;55.10;;;;;;5093922;28;20185;-19
2022/03/18 05:28:55;;;;;;;1.70;1.50;;;14.60;55.10;;;;;;5075217;28;20178;-14
2022/03/18 05:31:21;;;;;;;2.00;1.60;;;14.60;55.00;;;;;;5068171;28;20206;-14
2022/03/18 05:33:47;;;;;;;3.07;1.70;;;14.60;55.10;;;;;;5079126;28;20174;-14
2022/03/18 05:36:13;;;;;;;1.80;1.60;;;14.60;55.00;;;;;;5092309;28;20185;-17
2022/03/18 05:38:38;;;;;;;1.80;1.60;;;14.60;55.00;;;;;;5076394;28;20546;-16
2022/03/18 05:41:04;;;;;;;2.17;1.70;;;14.60;55.00;;;;;;5092152;28;20169;-16
2022/03/18 05:43:30;;;;;;;1.90;1.70;;;14.60;55.10;;;;;;5090956;28;20204;-17
2022/03/18 05:45:56;;;;;;;2.20;1.80;;;14.60;55.00;;;;;;5091937;28;20486;-16
2022/03/18 05:48:21;;;;;;;1.63;1.50;;;14.60;55.00;;;;;;5090907;28;20163;-17
2022/03/18 05:50:47;;;;;;;2.00;1.70;;;14.60;55.00;;;;;;5090761;28;20207;-13
2022/03/18 05:53:13;;;;;;;2.60;1.70;;;14.60;55.00;;;;;;5071384;28;20182;-16
2022/03/18 05:58:23;;;;;;;3.33;1.80;;;14.50;55.30;;;;;;5090413;28;20214;-15
2022/03/18 06:00:49;;;;;;;2.43;1.63;;;14.50;54.90;;;;;;5073527;28;20587;-17
2022/03/18 06:03:15;;;;;;;1.57;1.47;;;14.50;54.90;;;;;;5066614;28;20167;-18
2022/03/18 06:05:42;;;;;;;2.10;1.70;;;14.50;54.80;;;;;;5090438;28;20165;-15
2022/03/18 06:13:38;;;;;;;2.47;1.87;;;14.50;54.90;;;;;;5089036;28;20268;-14
2022/03/18 06:16:04;;;;;;;3.10;1.60;;;14.50;55.00;;;;;;5074183;28;20171;-17
2022/03/18 06:18:30;;;;;;;2.30;1.50;;;14.60;55.10;;;;;;5089487;28;20312;-14
2022/03/18 06:20:56;;;;;;;2.00;1.80;;;14.60;55.40;;;;;;5071408;28;20272;-14
2022/03/18 06:23:22;;;;;;;1.57;1.40;;;14.60;54.90;;;;;;5076466;28;20167;-15
2022/03/18 06:25:47;;;;;;;2.07;1.60;;;14.60;54.90;;;;;;5090519;28;20177;-17
2022/03/18 06:28:13;;;;;;;2.30;2.00;;;14.70;54.80;;;;;;5090292;28;20193;-17
2022/03/18 06:30:39;;;;;;;2.53;1.80;;;14.90;54.50;;;;;;5083547;28;20172;-14
2022/03/18 06:33:04;;;;;;;2.77;1.90;;;15.00;54.10;;;;;;5080329;28;20577;-19
2022/03/18 06:35:30;;;;;;;2.27;1.60;;;15.20;53.70;;;;;;5064154;28;20215;-16
2022/03/18 06:37:56;;;;;;;1.87;1.53;;;15.30;53.40;;;;;;5068873;28;20216;-17
2022/03/18 06:40:21;;;;;;;2.27;1.90;;;15.40;53.10;;;;;;5086778;28;20176;-17
2022/03/18 06:42:47;;;;;;;2.30;1.73;;;15.50;52.80;;;;;;5087600;28;20209;-17
2022/03/18 06:45:13;;;;;;;1.83;1.70;;;15.60;52.60;;;;;;5089722;28;20188;-19
2022/03/18 06:47:39;;;;;;;2.13;1.80;;;15.70;52.40;;;;;;5088739;28;20194;-18
2022/03/18 06:50:05;;;;;;;2.10;1.90;;;15.80;52.20;;;;;;5089513;28;20185;-18
2022/03/18 06:52:31;;;;;;;3.33;2.00;;;15.80;52.00;;;;;;5089393;28;20177;-17
2022/03/18 06:54:57;;;;;;;2.50;1.80;;;15.90;51.80;;;;;;5077637;28;20181;-18
2022/03/18 06:57:22;;;;;;;2.80;1.90;;;16.00;51.70;;;;;;5060387;28;20271;-21
2022/03/18 06:59:49;;;;;;;2.10;1.90;;;16.00;51.50;;;;;;5077517;28;20250;-17
2022/03/18 07:02:15;;;;;;;3.20;2.10;;;16.10;51.30;;;;;;5079755;28;20276;-18
2022/03/18 07:04:42;;;;;;;3.20;2.13;;;16.20;51.20;;;;;;5087089;28;20268;-15
2022/03/18 07:07:08;;;;;;;2.77;2.43;;;16.20;51.20;;;;;;5083933;28;20249;-17
2022/03/18 07:09:33;;;;;;;3.03;2.00;;;16.30;51.10;;;;;;5067575;28;20182;-19
2022/03/18 07:12:00;;;;;;;2.77;2.03;;;16.50;51.10;;;;;;5090149;28;20183;-15
2022/03/18 07:14:26;;;;;;;2.93;1.90;;;16.60;50.90;;;;;;5068624;28;20606;-17
2022/03/18 07:19:38;;;;;;;5.10;2.23;;;16.80;50.60;;;;;;5088301;28;20209;-20
2022/03/18 07:22:04;;;;;;;3.70;2.20;;;16.90;50.40;;;;;;5071491;28;20277;-18
2022/03/18 07:24:30;;;;;;;3.90;2.40;;;17.10;50.50;;;;;;5088668;28;20315;-16
2022/03/18 07:26:55;;;;;;;4.03;2.40;;;17.20;50.40;;;;;;5070651;28;20668;-18
2022/03/18 07:29:21;;;;;;;6.47;2.50;;;17.30;50.20;;;;;;5069858;28;20181;-18
2022/03/18 07:31:47;;;;;;;4.40;2.60;;;17.40;50.00;;;;;;5089111;28;20435;-17
2022/03/18 07:34:13;;;;;;;4.73;2.77;;;17.40;49.80;;;;;;5070243;28;20183;-21
2022/03/18 07:36:38;;;;;;;6.07;2.90;;;17.50;49.70;;;;;;5087084;28;20178;-19
2022/03/18 07:39:04;;;;;;;5.40;2.83;;;17.60;49.70;;;;;;5074104;28;20565;-21
2022/03/18 07:41:30;;;;;;;5.07;3.00;;;17.70;49.40;;;;;;5087606;28;20366;-20
2022/03/18 07:43:56;;;;;;;3.70;2.93;;;17.80;49.30;;;;;;5069908;28;20218;-16
2022/03/18 07:46:21;;;;;;;6.00;3.37;;;17.90;49.40;;;;;;5061319;28;20273;-17
2022/03/18 07:48:47;;;;;;;7.37;3.10;;;18.00;49.20;;;;;;5080197;28;20277;-19
2022/03/18 07:51:13;;;;;;;6.70;3.30;;;18.00;48.90;;;;;;5062532;28;20374;-22
2022/03/18 07:53:39;;;;;;;9.27;3.70;;;18.10;48.60;;;;;;5063121;28;20463;-20
2022/03/18 07:56:04;;;;;;;6.40;3.53;;;18.20;48.60;;;;;;5078023;28;20175;-16
2022/03/18 07:58:30;;;;;;;5.20;3.23;;;18.20;48.30;;;;;;5087244;28;20206;-22
2022/03/18 08:00:56;;;;;;;4.30;2.87;;;18.30;48.20;;;;;;5059655;28;20163;-19
2022/03/18 08:03:22;;;;;;;4.63;3.50;;;18.40;48.30;;;;;;5080242;28;20167;-19
2022/03/18 08:05:48;;;;;;;6.37;3.37;;;18.40;48.00;;;;;;5077177;28;20246;-21
2022/03/18 08:08:14;;;;;;;5.10;3.63;;;18.60;48.00;;;;;;5078054;28;20262;-22
2022/03/18 08:10:40;;;;;;;4.40;3.40;;;18.60;47.80;;;;;;5069087;28;20792;-18
2022/03/18 08:13:06;;;;;;;7.40;3.80;;;18.70;47.80;;;;;;5088874;28;20240;-20
2022/03/18 08:15:33;;;;;;;5.97;3.53;;;18.80;47.70;;;;;;5083036;28;20177;-21
2022/03/18 08:17:59;;;;;;;6.37;3.23;;;18.90;47.60;;;;;;5067591;28;20423;-21
2022/03/18 08:20:25;;;;;;;4.77;3.40;;;18.90;47.40;;;;;;5080721;28;20310;-23
2022/03/18 08:22:51;;;;;;;6.03;3.93;;;19.00;47.30;;;;;;5089597;28;20228;-20
2022/03/18 08:25:18;;;;;;;5.67;3.50;;;19.10;47.30;;;;;;5090215;28;20175;-23
2022/03/18 08:27:46;;;;;;;6.57;3.70;;;19.10;47.10;;;;;;5088986;28;20177;-22
2022/03/18 08:30:12;;;;;;;4.70;3.33;;;19.20;47.10;;;;;;5072630;28;20203;-20
2022/03/18 08:32:38;;;;;;;5.27;3.60;;;19.30;47.00;;;;;;5072033;28;20448;-21
2022/03/18 08:35:04;;;;;;;5.33;3.37;;;19.30;46.80;;;;;;5089069;28;20285;-22
2022/03/18 08:40:15;;;;;;;4.30;3.13;;;19.40;46.80;;;;;;5090173;28;20190;-21
2022/03/18 08:42:41;;;;;;;4.73;2.90;;;19.40;46.70;;;;;;5090717;28;20162;-22
2022/03/18 08:45:08;;;;;;;5.77;3.20;;;19.50;46.60;;;;;;5090922;28;20524;-23
2022/03/18 08:47:34;;;;;;;5.97;3.10;;;19.50;46.50;;;;;;5088361;28;20179;-23
2022/03/18 08:50:00;;;;;;;4.83;3.03;;;19.60;46.50;;;;;;5089264;28;20171;-22
2022/03/18 08:52:26;;;;;;;4.67;3.27;;;19.70;46.40;;;;;;5070816;28;20408;-23
2022/03/18 08:54:51;;;;;;;4.47;3.33;;;19.70;46.40;;;;;;5088592;28;20240;-24
2022/03/18 08:57:17;;;;;;;5.60;3.07;;;19.80;46.20;;;;;;5088928;28;20242;-21
2022/03/18 08:59:43;;;;;;;5.40;3.33;;;19.80;46.10;;;;;;5085171;28;20236;-23
2022/03/18 09:02:09;;;;;;;4.53;3.13;;;19.90;46.10;;;;;;5084683;28;20171;-24
2022/03/18 09:04:35;;;;;;;4.57;3.40;;;20.00;46.00;;;;;;5094613;28;20232;-25
2022/03/18 09:07:01;;;;;;;4.30;3.07;;;20.00;45.90;;;;;;5079257;28;20171;-22
2022/03/18 09:09:26;;;;;;;7.23;3.90;;;20.10;45.80;;;;;;5080551;28;20171;-22
2022/03/18 09:11:53;;;;;;;4.97;3.10;;;20.00;45.70;;;;;;5079248;28;20286;-24
2022/03/18 09:14:18;;;;;;;5.47;3.07;;;20.10;45.70;;;;;;5079666;28;20446;-23
2022/03/18 09:16:44;;;;;;;5.57;3.10;;;20.20;45.50;;;;;;5094334;28;20676;-23
2022/03/18 09:19:09;;;;;;;4.30;3.07;;;20.20;45.40;;;;;;5084398;28;20260;-19
2022/03/18 09:21:35;;;;;;;3.67;2.80;;;20.20;45.20;;;;;;5088591;28;20262;-20
2022/03/18 09:24:02;;;;;;;4.73;3.10;;;20.20;45.10;;;;;;5089687;28;20240;-23
2022/03/18 09:26:28;;;;;;;5.80;3.03;;;20.40;45.10;;;;;;5071376;28;20228;-21
2022/03/18 09:28:54;;;;;;;4.07;2.53;;;20.40;45.00;;;;;;5088344;28;20479;-22
2022/03/18 09:31:20;;;;;;;4.20;3.20;;;20.40;45.00;;;;;;5088934;28;20551;-21
2022/03/18 09:33:46;;;;;;;3.80;2.70;;;20.40;45.00;;;;;;5089393;28;20182;-19
2022/03/18 09:36:17;;;;;;;3.43;2.47;;;20.00;45.00;;;;;;5071444;28;20545;-22
2022/03/18 09:38:43;;;;;;;3.40;2.30;;;19.60;45.20;;;;;;5090885;28;20587;-22
2022/03/18 09:41:09;;;;;;;4.80;2.47;;;19.30;45.70;;;;;;5072155;28;20185;-23
2022/03/18 09:43:38;;;;;;;3.33;2.33;;;18.90;46.10;;;;;;5067616;28;20233;-22
2022/03/18 09:46:08;;;;;;;3.83;2.50;;;18.60;46.50;;;;;;5072210;28;20412;-21
2022/03/18 09:48:34;;;;;;;5.40;2.53;;;18.30;46.80;;;;;;5088661;28;20163;-23
2022/03/18 09:51:00;;;;;;;3.87;2.50;;;18.10;46.90;;;;;;5089629;28;20183;-23
2022/03/18 09:53:26;;;;;;;4.70;2.33;;;18.00;47.10;;;;;;5069981;28;20167;-23
2022/03/18 09:55:52;;;;;;;4.20;2.53;;;17.90;47.30;;;;;;5084566;28;20203;-25
2022/03/18 09:58:22;;;;;;;4.23;2.47;;;17.80;47.40;;;;;;5087462;28;20201;-23
2022/03/18 10:00:51;;;;;;;3.73;2.20;;;17.80;47.50;;;;;;5088403;28;20163;-22
2022/03/18 10:03:19;;;;;;;3.80;2.30;;;17.70;47.60;;;;;;5088949;28;20209;-22
2022/03/18 10:05:59;;;;;;;3.90;2.23;;;17.70;47.70;;;;;;5069893;28;20182;-23
2022/03/18 10:08:45;;;;;;;2.60;2.20;;;17.60;47.80;;;;;;5066718;28;20213;-23
2022/03/18 10:11:19;;;;;;;4.50;2.07;;;17.60;47.90;;;;;;5088424;28;20186;-24
2022/03/18 10:14:06;;;;;;;2.73;2.07;;;17.60;47.90;;;;;;5087584;28;20170;-22
2022/03/18 10:17:02;;;;;;;3.70;1.90;;;17.60;48.00;;;;;;5071216;28;20407;-22
2022/03/18 10:19:28;;;;;;;3.23;2.00;;;17.60;48.10;;;;;;5081677;28;20281;-24
2022/03/18 10:22:01;;;;;;;3.23;2.00;;;17.60;48.10;;;;;;5086747;28;20270;-21
2022/03/18 10:24:35;;;;;;;2.93;1.83;;;17.50;48.10;;;;;;5069870;28;20456;-22
2022/03/18 10:27:23;;;;;;;3.20;1.90;;;17.50;48.50;;;;;;5069398;28;20240;-22
2022/03/18 10:29:50;;;;;;;3.00;1.90;;;17.40;48.20;;;;;;5067389;28;20174;-21
2022/03/18 10:32:18;;;;;;;2.17;1.90;;;17.40;48.10;;;;;;5083207;28;20528;-20
2022/03/18 10:37:52;;;;;;;3.37;1.93;;;17.30;48.10;;;;;;5082446;28;20247;-21
2022/03/18 10:40:33;;;;;;;4.23;1.80;;;17.30;48.20;;;;;;5082725;28;20276;-23
2022/03/18 10:43:01;;;;;;;2.63;1.80;;;17.20;48.10;;;;;;5065611;28;20180;-19
2022/03/18 10:45:27;;;;;;;2.30;1.50;;;17.20;48.10;;;;;;5083196;28;20581;-22
2022/03/18 10:47:53;;;;;;;2.47;1.60;;;17.10;48.20;;;;;;5082111;28;20174;-25
2022/03/18 10:50:29;;;;;;;2.40;1.40;;;17.10;48.10;;;;;;5067786;28;20202;-21
2022/03/18 10:52:59;;;;;;;1.83;1.23;;;17.10;48.20;;;;;;5060739;28;20218;-21
2022/03/18 10:55:31;;;;;;;3.67;1.40;;;17.10;48.20;;;;;;5081032;28;20258;-22
2022/03/18 10:58:03;;;;;;;1.90;1.40;;;17.10;48.20;;;;;;5086011;28;20296;-21
2022/03/18 11:00:32;;;;;;;3.47;1.67;;;17.10;48.30;;;;;;5086510;28;20177;-18
2022/03/18 11:02:59;;;;;;;2.80;1.70;;;17.00;48.20;;;;;;5080759;28;20572;-19
2022/03/18 11:05:38;;;;;;;3.00;1.40;;;17.00;48.20;;;;;;5069827;28;20646;-20
2022/03/18 11:08:13;;;;;;;1.27;1.17;;;16.90;48.20;;;;;;5085950;28;20170;-19
2022/03/18 11:13:54;;;;;;;2.27;1.60;;;16.90;48.30;;;;;;5085265;28;20184;-22
2022/03/18 11:16:23;;;;;;;4.27;1.50;;;16.90;48.20;;;;;;5062203;28;20174;-20
2022/03/18 11:18:49;;;;;;;2.40;1.30;;;16.90;48.30;;;;;;5078772;28;20215;-20
2022/03/18 11:21:16;;;;;;;2.43;1.40;;;16.80;48.30;;;;;;5073300;28;20321;-17
2022/03/18 11:23:45;;;;;;;2.10;1.10;;;16.90;48.40;;;;;;5085251;28;20278;-21
2022/03/18 11:26:14;;;;;;;2.07;1.47;;;16.80;48.30;;;;;;5085158;28;20167;-20
2022/03/18 11:28:40;;;;;;;1.57;1.33;;;16.80;48.30;;;;;;5067159;28;20163;-15
2022/03/18 11:31:07;;;;;;;2.17;1.30;;;16.80;48.40;;;;;;5085586;28;20171;-19
2022/03/18 11:33:34;;;;;;;2.47;1.20;;;16.70;48.40;;;;;;5083421;28;20467;-17
2022/03/18 11:36:05;;;;;;;2.77;1.50;;;16.80;48.50;;;;;;5084843;28;20251;-18
2022/03/18 11:38:52;;;;;;;3.33;1.57;;;16.70;48.40;;;;;;5084007;28;20207;-19
2022/03/18 11:41:19;;;;;;;3.87;1.57;;;16.70;48.40;;;;;;5067345;28;20274;-18
2022/03/18 11:43:44;;;;;;;3.03;1.20;;;16.70;48.40;;;;;;5065625;28;20205;-18
2022/03/18 11:46:13;;;;;;;1.67;1.23;;;16.70;48.50;;;;;;5076009;28;20554;-19
2022/03/18 11:48:57;;;;;;;2.13;1.17;;;16.70;48.50;;;;;;5089508;28;20218;-18
2022/03/18 11:51:25;;;;;;;2.53;1.27;;;16.60;48.50;;;;;;5069595;28;20178;-20
2022/03/18 11:53:53;;;;;;;2.33;1.30;;;16.60;48.60;;;;;;5088275;28;20179;-20
2022/03/18 11:56:38;;;;;;;2.50;1.20;;;16.60;48.60;;;;;;5088246;28;20369;-17
2022/03/18 11:59:24;;;;;;;1.60;1.20;;;16.60;48.60;;;;;;5067643;28;20333;-19
2022/03/18 12:02:12;;;;;;;1.83;1.20;;;16.60;48.60;;;;;;5087350;28;20635;-18
2022/03/18 12:04:43;;;;;;;2.60;1.27;;;16.60;48.60;;;;;;5086725;28;20251;-20
2022/03/18 12:07:10;;;;;;;1.90;1.40;;;16.60;48.60;;;;;;5083699;28;20189;-18
2022/03/18 12:10:00;;;;;;;2.50;1.27;;;16.60;48.60;;;;;;5082905;28;20641;-19
2022/03/18 12:12:33;;;;;;;2.00;1.20;;;16.60;48.60;;;;;;5068717;28;20276;-21
2022/03/18 12:15:05;;;;;;;2.00;1.10;;;16.50;48.60;;;;;;5070644;28;20182;-18
2022/03/18 12:17:39;;;;;;;1.70;1.10;;;16.50;48.60;;;;;;5081361;28;20261;-18
2022/03/18 12:20:06;;;;;;;1.77;1.20;;;16.50;48.60;;;;;;5084641;28;20187;-22
2022/03/18 12:22:37;;;;;;;2.00;1.20;;;16.50;48.60;;;;;;5079043;28;20345;-16
2022/03/18 12:25:05;;;;;;;1.80;1.23;;;16.50;48.70;;;;;;5058954;28;20471;-16
2022/03/18 12:27:39;;;;;;;2.87;1.30;;;16.50;48.70;;;;;;5060983;28;20203;-15
2022/03/18 12:30:17;;;;;;;1.87;1.20;;;16.50;48.70;;;;;;5078674;28;20180;-18
2022/03/18 12:32:57;;;;;;;1.73;1.20;;;16.50;48.70;;;;;;5083663;28;20640;-18
2022/03/18 12:35:46;;;;;;;2.07;1.30;;;16.40;48.70;;;;;;5087347;28;20284;-18
2022/03/18 12:38:16;;;;;;;3.23;1.43;;;16.40;48.70;;;;;;5059274;28;20228;-19
2022/03/18 12:40:44;;;;;;;3.43;1.43;;;16.40;48.70;;;;;;5073052;28;20654;-18
2022/03/18 12:43:15;;;;;;;4.20;1.50;;;16.40;48.70;;;;;;5060978;28;20193;-16
2022/03/18 12:45:43;;;;;;;2.10;1.30;;;16.40;48.70;;;;;;5083384;28;20276;-20
2022/03/18 12:48:13;;;;;;;2.10;1.20;;;16.40;48.70;;;;;;5087617;28;20179;-18
2022/03/18 12:50:42;;;;;;;4.17;1.43;;;16.40;48.80;;;;;;5073736;28;20240;-16
2022/03/18 12:53:15;;;;;;;2.23;1.47;;;16.40;48.80;;;;;;5080263;28;20198;-18
2022/03/18 12:55:42;;;;;;;2.10;1.27;;;16.40;48.80;;;;;;5063701;28;20184;-19
2022/03/18 12:58:08;;;;;;;1.73;1.30;;;16.40;48.80;;;;;;5089058;28;20207;-16
2022/03/18 13:00:39;;;;;;;2.83;1.30;;;16.40;48.80;;;;;;5087319;28;20173;-17
2022/03/18 13:03:09;;;;;;;2.23;1.43;;;16.40;48.80;;;;;;5079604;28;20181;-19
2022/03/18 13:05:35;;;;;;;2.30;1.30;;;16.40;48.70;;;;;;5086940;28;20210;-16
2022/03/18 13:08:09;;;;;;;2.97;1.30;;;16.30;48.70;;;;;;5075750;28;20440;-18
2022/03/18 13:10:35;;;;;;;2.53;1.50;;;16.30;48.70;;;;;;5087626;28;20176;-20
2022/03/18 13:13:11;;;;;;;2.80;1.00;;;16.30;48.60;;;;;;5088066;28;20242;-15
2022/03/18 13:15:47;;;;;;;2.80;1.30;;;16.30;48.60;;;;;;5068610;28;20187;-19
2022/03/18 13:18:15;;;;;;;2.60;1.33;;;16.30;48.60;;;;;;5074368;28;20542;-17
2022/03/18 13:20:41;;;;;;;4.97;1.40;;;16.30;48.60;;;;;;5074229;28;20178;-19
2022/03/18 13:23:10;;;;;;;2.00;1.30;;;16.30;48.60;;;;;;5087309;28;20195;-17